N8097H KCRQ-KLAX
Flight info
| Callsign | N8097H |
|---|---|
| Flight time | 0h 27m |
| Altitude | 8000 |
| Route | SANP4R |
| Aircraft | TBM9/L-GNS530/S |
Departure
| Time | 2026-04-26 00:06 |
|---|---|
| Airport | McClellan-Palomar Airport (KCRQ) |
Arrival
| Time | 2026-04-26 00:33 |
|---|---|
| Airport | Los Angeles International Airport (KLAX) |
| Time | Latitude | Longitude | Altitude | Speed | Heading |
|---|---|---|---|---|---|
| 2026-04-25 23:50 | 33.12657 | -117.28309 | 333 ft | 0 kts | 55° |
| 2026-04-25 23:51 | 33.12661 | -117.28301 | 333 ft | 11 kts | 64° |
| 2026-04-25 23:51 | 33.12688 | -117.28246 | 333 ft | 2 kts | 253° |
| 2026-04-25 23:52 | 33.12686 | -117.28252 | 333 ft | 0 kts | 247° |
| 2026-04-25 23:52 | 33.12682 | -117.28266 | 334 ft | 0 kts | 257° |
| 2026-04-26 00:03 | 33.12688 | -117.28278 | 334 ft | 14 kts | 337° |
| 2026-04-26 00:03 | 33.12723 | -117.28138 | 335 ft | 21 kts | 83° |
| 2026-04-26 00:03 | 33.12749 | -117.27976 | 332 ft | 29 kts | 80° |
| 2026-04-26 00:03 | 33.12800 | -117.27661 | 331 ft | 39 kts | 78° |
| 2026-04-26 00:04 | 33.12846 | -117.27373 | 331 ft | 30 kts | 79° |
| 2026-04-26 00:04 | 33.12860 | -117.27297 | 331 ft | 0 kts | 58° |
| 2026-04-26 00:05 | 33.12915 | -117.27252 | 331 ft | 25 kts | 9° |
| 2026-04-26 00:05 | 33.12928 | -117.27390 | 332 ft | 41 kts | 259° |
| 2026-04-26 00:05 | 33.12827 | -117.27993 | 413 ft | 99 kts | 258° |
| 2026-04-26 00:05 | 33.12708 | -117.28851 | 920 ft | 111 kts | 262° |
| 2026-04-26 00:06 | 33.12634 | -117.29782 | 1541 ft | 113 kts | 264° |
| 2026-04-26 00:06 | 33.12460 | -117.30733 | 2029 ft | 129 kts | 251° |
| 2026-04-26 00:06 | 33.12258 | -117.31859 | 2396 ft | 148 kts | 263° |
| 2026-04-26 00:06 | 33.12185 | -117.33121 | 2828 ft | 164 kts | 265° |
| 2026-04-26 00:07 | 33.12163 | -117.34561 | 3072 ft | 189 kts | 270° |
| 2026-04-26 00:07 | 33.11921 | -117.36131 | 3393 ft | 195 kts | 249° |
| 2026-04-26 00:07 | 33.11495 | -117.37607 | 4146 ft | 183 kts | 256° |
| 2026-04-26 00:07 | 33.11259 | -117.39058 | 4903 ft | 174 kts | 261° |
| 2026-04-26 00:08 | 33.11064 | -117.40456 | 5645 ft | 168 kts | 260° |
| 2026-04-26 00:08 | 33.10869 | -117.41809 | 6397 ft | 163 kts | 260° |
| 2026-04-26 00:08 | 33.10679 | -117.43122 | 7108 ft | 159 kts | 259° |
| 2026-04-26 00:08 | 33.10592 | -117.44393 | 7807 ft | 159 kts | 276° |
| 2026-04-26 00:09 | 33.10916 | -117.45792 | 7905 ft | 192 kts | 284° |
| 2026-04-26 00:09 | 33.11315 | -117.47418 | 7909 ft | 215 kts | 282° |
| 2026-04-26 00:09 | 33.11705 | -117.49208 | 7909 ft | 229 kts | 282° |
| 2026-04-26 00:09 | 33.12096 | -117.51090 | 7907 ft | 238 kts | 282° |
| 2026-04-26 00:10 | 33.12500 | -117.53021 | 7905 ft | 242 kts | 282° |
| 2026-04-26 00:10 | 33.12911 | -117.54978 | 7902 ft | 244 kts | 282° |
| 2026-04-26 00:10 | 33.13324 | -117.56948 | 7902 ft | 246 kts | 282° |
| 2026-04-26 00:10 | 33.13732 | -117.58900 | 7899 ft | 246 kts | 282° |
| 2026-04-26 00:11 | 33.14146 | -117.60883 | 7898 ft | 246 kts | 282° |
| 2026-04-26 00:11 | 33.14560 | -117.62864 | 7898 ft | 246 kts | 282° |
| 2026-04-26 00:11 | 33.14975 | -117.64849 | 7900 ft | 247 kts | 282° |
| 2026-04-26 00:11 | 33.15391 | -117.66840 | 7897 ft | 248 kts | 282° |
| 2026-04-26 00:12 | 33.15806 | -117.68834 | 7894 ft | 247 kts | 282° |
| 2026-04-26 00:12 | 33.16221 | -117.70825 | 7890 ft | 247 kts | 282° |
| 2026-04-26 00:12 | 33.16636 | -117.72816 | 7887 ft | 247 kts | 282° |
| 2026-04-26 00:12 | 33.16910 | -117.74133 | 7886 ft | 247 kts | 282° |
| 2026-04-26 00:13 | 33.17325 | -117.76127 | 7889 ft | 247 kts | 282° |
| 2026-04-26 00:13 | 33.17738 | -117.78119 | 7877 ft | 247 kts | 282° |
| 2026-04-26 00:13 | 33.18285 | -117.80755 | 7880 ft | 247 kts | 282° |
| 2026-04-26 00:13 | 33.18827 | -117.82709 | 7895 ft | 250 kts | 294° |
| 2026-04-26 00:14 | 33.19788 | -117.84465 | 7896 ft | 256 kts | 307° |
| 2026-04-26 00:14 | 33.20627 | -117.85460 | 7894 ft | 259 kts | 317° |
| 2026-04-26 00:14 | 33.22152 | -117.86626 | 7898 ft | 263 kts | 332° |
| 2026-04-26 00:14 | 33.23901 | -117.87291 | 7895 ft | 265 kts | 345° |
| 2026-04-26 00:15 | 33.25708 | -117.87726 | 7895 ft | 265 kts | 345° |
| 2026-04-26 00:15 | 33.27510 | -117.88189 | 7894 ft | 265 kts | 345° |
| 2026-04-26 00:15 | 33.29314 | -117.88639 | 7892 ft | 265 kts | 345° |
| 2026-04-26 00:15 | 33.31114 | -117.89084 | 7890 ft | 264 kts | 345° |
| 2026-04-26 00:16 | 33.32915 | -117.89531 | 7890 ft | 264 kts | 345° |
| 2026-04-26 00:16 | 33.34710 | -117.89980 | 7892 ft | 264 kts | 345° |
| 2026-04-26 00:16 | 33.36508 | -117.90431 | 7891 ft | 264 kts | 345° |
| 2026-04-26 00:16 | 33.38305 | -117.90875 | 7890 ft | 264 kts | 345° |
| 2026-04-26 00:17 | 33.40102 | -117.91322 | 7889 ft | 264 kts | 345° |
| 2026-04-26 00:17 | 33.41872 | -117.91763 | 7891 ft | 264 kts | 345° |
| 2026-04-26 00:17 | 33.43669 | -117.92209 | 7889 ft | 264 kts | 345° |
| 2026-04-26 00:17 | 33.45466 | -117.92658 | 7884 ft | 264 kts | 345° |
| 2026-04-26 00:18 | 33.47263 | -117.93105 | 7884 ft | 263 kts | 345° |
| 2026-04-26 00:18 | 33.49058 | -117.93552 | 7888 ft | 264 kts | 345° |
| 2026-04-26 00:18 | 33.50860 | -117.94000 | 7889 ft | 265 kts | 345° |
| 2026-04-26 00:18 | 33.52669 | -117.94452 | 7888 ft | 265 kts | 345° |
| 2026-04-26 00:19 | 33.54472 | -117.94901 | 7888 ft | 265 kts | 345° |
| 2026-04-26 00:19 | 33.56280 | -117.95354 | 7877 ft | 266 kts | 345° |
| 2026-04-26 00:19 | 33.58066 | -117.95798 | 7875 ft | 265 kts | 345° |
| 2026-04-26 00:19 | 33.59881 | -117.96252 | 7706 ft | 270 kts | 345° |
| 2026-04-26 00:20 | 33.61742 | -117.96710 | 7387 ft | 275 kts | 346° |
| 2026-04-26 00:20 | 33.63603 | -117.97164 | 7068 ft | 259 kts | 346° |
| 2026-04-26 00:20 | 33.65205 | -117.97581 | 6986 ft | 212 kts | 343° |
| 2026-04-26 00:20 | 33.66522 | -117.97889 | 6978 ft | 176 kts | 350° |
| 2026-04-26 00:21 | 33.67679 | -117.98164 | 7069 ft | 184 kts | 340° |
| 2026-04-26 00:21 | 33.69037 | -117.98610 | 7044 ft | 214 kts | 335° |
| 2026-04-26 00:21 | 33.70408 | -117.99370 | 7151 ft | 212 kts | 329° |
| 2026-04-26 00:21 | 33.71619 | -118.00185 | 7147 ft | 199 kts | 324° |
| 2026-04-26 00:22 | 33.72740 | -118.01289 | 7160 ft | 224 kts | 316° |
| 2026-04-26 00:22 | 33.74213 | -118.02076 | 7150 ft | 248 kts | 352° |
| 2026-04-26 00:22 | 33.75927 | -118.01608 | 7144 ft | 263 kts | 26° |
| 2026-04-26 00:22 | 33.77530 | -118.00546 | 7155 ft | 263 kts | 19° |
| 2026-04-26 00:23 | 33.79318 | -118.00093 | 7143 ft | 263 kts | 5° |
| 2026-04-26 00:23 | 33.81140 | -117.99863 | 7133 ft | 264 kts | 3° |
| 2026-04-26 00:23 | 33.82981 | -117.99664 | 7069 ft | 267 kts | 3° |
| 2026-04-26 00:23 | 33.84785 | -117.99472 | 6662 ft | 245 kts | 2° |
| 2026-04-26 00:24 | 33.86370 | -117.99310 | 6139 ft | 222 kts | 2° |
| 2026-04-26 00:24 | 33.87870 | -117.99167 | 5563 ft | 211 kts | 2° |
| 2026-04-26 00:24 | 33.89289 | -117.99037 | 5052 ft | 201 kts | 2° |
| 2026-04-26 00:24 | 33.90672 | -117.99149 | 4380 ft | 199 kts | 349° |
| 2026-04-26 00:25 | 33.92026 | -117.99345 | 3973 ft | 186 kts | 352° |
| 2026-04-26 00:25 | 33.93187 | -117.99522 | 3957 ft | 151 kts | 343° |
| 2026-04-26 00:25 | 33.94039 | -117.99960 | 3945 ft | 119 kts | 318° |
| 2026-04-26 00:25 | 33.94578 | -118.00608 | 3944 ft | 102 kts | 293° |
| 2026-04-26 00:26 | 33.94770 | -118.01594 | 3795 ft | 157 kts | 282° |
| 2026-04-26 00:26 | 33.95338 | -118.02888 | 4062 ft | 191 kts | 301° |
| 2026-04-26 00:26 | 33.96169 | -118.04331 | 3941 ft | 230 kts | 309° |
| 2026-04-26 00:26 | 33.97131 | -118.05882 | 4087 ft | 230 kts | 285° |
| 2026-04-26 00:27 | 33.97163 | -118.07792 | 4343 ft | 220 kts | 256° |
| 2026-04-26 00:27 | 33.96761 | -118.09370 | 4452 ft | 178 kts | 256° |
| 2026-04-26 00:27 | 33.96557 | -118.10854 | 4494 ft | 179 kts | 261° |
| 2026-04-26 00:27 | 33.96391 | -118.12332 | 4388 ft | 180 kts | 262° |
| 2026-04-26 00:28 | 33.96225 | -118.13873 | 4145 ft | 190 kts | 262° |
| 2026-04-26 00:28 | 33.96072 | -118.15451 | 3883 ft | 184 kts | 262° |
| 2026-04-26 00:28 | 33.95917 | -118.16935 | 3639 ft | 176 kts | 262° |
| 2026-04-26 00:28 | 33.95761 | -118.18440 | 3406 ft | 185 kts | 263° |
| 2026-04-26 00:29 | 33.95601 | -118.20051 | 3149 ft | 210 kts | 263° |
| 2026-04-26 00:29 | 33.95420 | -118.21821 | 2858 ft | 206 kts | 263° |
| 2026-04-26 00:29 | 33.95261 | -118.23411 | 2597 ft | 179 kts | 263° |
| 2026-04-26 00:29 | 33.95105 | -118.24844 | 2373 ft | 181 kts | 263° |
| 2026-04-26 00:30 | 33.94963 | -118.26505 | 2043 ft | 202 kts | 264° |
| 2026-04-26 00:30 | 33.94792 | -118.28000 | 1711 ft | 158 kts | 261° |
| 2026-04-26 00:30 | 33.94627 | -118.29269 | 1448 ft | 163 kts | 263° |
| 2026-04-26 00:30 | 33.94502 | -118.30694 | 1345 ft | 175 kts | 265° |
| 2026-04-26 00:31 | 33.94403 | -118.32179 | 1206 ft | 181 kts | 263° |
| 2026-04-26 00:31 | 33.94201 | -118.33653 | 1003 ft | 166 kts | 262° |
| 2026-04-26 00:31 | 33.94081 | -118.34889 | 816 ft | 120 kts | 264° |
| 2026-04-26 00:31 | 33.94011 | -118.35677 | 639 ft | 78 kts | 264° |
| 2026-04-26 00:32 | 33.93933 | -118.36365 | 495 ft | 89 kts | 262° |
| 2026-04-26 00:32 | 33.93861 | -118.37104 | 351 ft | 86 kts | 262° |
| 2026-04-26 00:32 | 33.93724 | -118.38387 | 127 ft | 69 kts | 263° |
| 2026-04-26 00:33 | 33.93676 | -118.38853 | 121 ft | 45 kts | 262° |
| 2026-04-26 00:33 | 33.93580 | -118.39099 | 120 ft | 23 kts | 174° |
| 2026-04-26 00:33 | 33.93555 | -118.39094 | 121 ft | 0 kts | 166° |
| 2026-04-26 00:34 | 33.93462 | -118.39156 | 121 ft | 26 kts | 217° |